Time;durP1;ratioP1;P1;durP2;ratioP2;P2;SDS_P1;SDS_P2;PMS_P1;PMS_P2;Temp;Humidity;BMP_temperature;BMP_pressure;BME280_temperature;BME280_humidity;BME280_pressure;Samples;Min_cycle;Max_cycle;Signal;HPM_P1;HPM_P2
2023/04/05 00:01:11;;;;;;;3.90;2.90;;;;;;;-0.25;70.38;101929.53;7400585;19;20038;-67
2023/04/05 00:03:39;;;;;;;5.95;3.75;;;;;;;-0.30;70.26;101925.88;7399676;19;20015;-67
2023/04/05 00:06:11;;;;;;;4.25;3.13;;;;;;;-0.35;70.68;101920.56;7400632;19;20086;-68
2023/04/05 00:08:49;;;;;;;2.97;2.35;;;;;;;-0.40;70.86;101922.06;7401041;19;20014;-67
2023/04/05 00:11:17;;;;;;;5.53;2.90;;;;;;;-0.46;71.04;101916.66;7400180;19;20492;-67
2023/04/05 00:13:46;;;;;;;5.53;3.47;;;;;;;-0.51;71.14;101917.31;7399022;19;20018;-67
2023/04/05 00:16:14;;;;;;;5.57;3.72;;;;;;;-0.55;71.05;101925.75;7400266;19;20022;-68
2023/04/05 00:18:44;;;;;;;8.80;5.22;;;;;;;-0.59;71.33;101918.69;7399857;19;20010;-68
2023/04/05 00:21:16;;;;;;;12.80;6.13;;;;;;;-0.63;71.39;101914.22;7399919;19;20025;-67
2023/04/05 00:23:44;;;;;;;13.82;5.75;;;;;;;-0.67;71.47;101915.78;7399005;19;20021;-67
2023/04/05 00:26:13;;;;;;;10.10;5.82;;;;;;;-0.71;71.57;101907.84;7399661;19;20086;-67
2023/04/05 00:28:41;;;;;;;8.15;4.82;;;;;;;-0.74;71.70;101918.91;7399897;19;20077;-68
2023/04/05 00:31:10;;;;;;;8.40;3.80;;;;;;;-0.80;71.95;101907.47;7398757;19;20548;-68
2023/04/05 00:33:38;;;;;;;6.10;3.72;;;;;;;-0.84;72.14;101907.31;7398256;19;20074;-68
2023/04/05 00:36:11;;;;;;;7.80;5.00;;;;;;;-0.91;72.11;101905.31;7399683;19;20094;-68
2023/04/05 00:38:43;;;;;;;6.13;3.47;;;;;;;-0.95;72.20;101907.66;7399654;19;20356;-68
2023/04/05 00:41:13;;;;;;;5.88;3.80;;;;;;;-1.01;72.44;101906.59;7396901;19;20031;-67
2023/04/05 00:43:42;;;;;;;5.18;3.47;;;;;;;-1.07;72.41;101903.72;7397802;19;20431;-67
2023/04/05 00:46:10;;;;;;;6.18;3.35;;;;;;;-1.16;72.55;101906.78;7398982;19;20011;-67
2023/04/05 00:48:39;;;;;;;5.38;3.40;;;;;;;-1.20;72.73;101906.56;7398863;19;20548;-67
2023/04/05 00:51:10;;;;;;;5.47;3.60;;;;;;;-1.25;73.03;101903.78;7398804;19;20085;-68
2023/04/05 00:53:43;;;;;;;5.03;2.95;;;;;;;-1.29;73.04;101893.28;7398287;19;20018;-67
2023/04/05 00:56:12;;;;;;;6.38;3.28;;;;;;;-1.36;73.19;101900.72;7398717;19;20015;-67
2023/04/05 00:58:41;;;;;;;4.57;3.38;;;;;;;-1.38;73.32;101901.47;7398508;19;20082;-67
2023/04/05 01:01:15;;;;;;;6.10;3.13;;;;;;;-1.42;73.30;101905.59;7398429;19;20007;-67
2023/04/05 01:03:48;;;;;;;7.05;3.17;;;;;;;-1.44;73.53;101896.03;7396799;19;20018;-67
2023/04/05 01:06:24;;;;;;;4.88;3.40;;;;;;;-1.48;73.43;101903.63;7399098;19;20086;-68
2023/04/05 01:09:07;;;;;;;5.80;3.15;;;;;;;-1.51;73.65;101897.44;7398109;19;20022;-68
2023/04/05 01:11:36;;;;;;;6.30;3.00;;;;;;;-1.54;73.72;101900.75;7398463;19;20007;-68
2023/04/05 01:14:05;;;;;;;5.22;3.47;;;;;;;-1.57;73.93;101895.47;7397326;19;20017;-67
2023/04/05 01:16:33;;;;;;;10.60;3.50;;;;;;;-1.62;73.93;101889.22;7398344;19;20019;-67
2023/04/05 01:19:12;;;;;;;6.18;3.25;;;;;;;-1.64;73.96;101890.84;7396255;19;20019;-67
2023/04/05 01:22:12;;;;;;;4.47;2.63;;;;;;;-1.68;74.14;101886.34;7398366;19;20014;-67
2023/04/05 01:24:56;;;;;;;3.95;2.88;;;;;;;-1.72;74.42;101892.19;7396317;19;20029;-67
2023/04/05 01:27:35;;;;;;;3.33;2.70;;;;;;;-1.76;74.44;101886.00;7398445;19;20357;-67
2023/04/05 01:30:15;;;;;;;3.53;3.08;;;;;;;-1.78;74.52;101890.22;7398426;19;20036;-67
2023/04/05 01:32:56;;;;;;;5.03;3.03;;;;;;;-1.82;74.76;101889.19;7395883;19;20010;-67
2023/04/05 01:35:34;;;;;;;5.30;3.00;;;;;;;-1.86;74.83;101886.38;7397358;19;20014;-67
2023/04/05 01:38:06;;;;;;;4.57;2.60;;;;;;;-1.89;74.88;101883.66;7397251;19;20014;-68
2023/04/05 01:40:37;;;;;;;5.05;3.13;;;;;;;-1.92;74.83;101881.84;7396153;19;20074;-67
2023/04/05 01:43:15;;;;;;;3.90;2.85;;;;;;;-1.95;75.26;101879.09;7395690;19;20070;-67
2023/04/05 01:45:47;;;;;;;7.63;4.60;;;;;;;-1.97;75.40;101879.03;7397442;19;20019;-67
2023/04/05 01:48:16;;;;;;;11.07;7.93;;;;;;;-2.00;75.82;101878.00;7397636;19;20027;-67
2023/04/05 01:50:44;;;;;;;14.20;8.68;;;;;;;-2.03;75.60;101883.88;7396804;19;20023;-67
2023/04/05 01:53:13;;;;;;;11.88;7.93;;;;;;;-2.05;75.94;101879.47;7396047;19;20082;-67
2023/04/05 01:55:41;;;;;;;8.15;6.32;;;;;;;-2.06;76.12;101883.75;7397008;19;20026;-67
2023/04/05 01:58:10;;;;;;;8.30;5.28;;;;;;;-2.06;76.13;101877.72;7396414;19;20544;-67
2023/04/05 02:00:38;;;;;;;8.00;5.30;;;;;;;-2.07;76.15;101879.41;7396809;19;20018;-67
2023/04/05 02:03:09;;;;;;;7.55;5.10;;;;;;;-2.09;75.97;101880.16;7395047;19;20022;-67
2023/04/05 02:05:38;;;;;;;8.05;4.80;;;;;;;-2.08;76.04;101874.19;7396986;19;20074;-67
2023/04/05 02:08:06;;;;;;;9.73;5.40;;;;;;;-2.06;75.98;101880.28;7396550;19;20104;-67
2023/04/05 02:10:34;;;;;;;9.40;4.53;;;;;;;-2.10;76.38;101879.25;7396022;19;20552;-67
2023/04/05 02:13:03;;;;;;;5.80;3.78;;;;;;;-2.11;76.39;101882.66;7396112;19;20078;-67
2023/04/05 02:15:32;;;;;;;10.75;4.60;;;;;;;-2.14;76.47;101880.81;7397465;19;20423;-65
2023/04/05 02:18:01;;;;;;;9.00;4.80;;;;;;;-2.16;76.54;101874.69;7395868;19;20021;-66
2023/04/05 02:20:33;;;;;;;8.07;4.53;;;;;;;-2.21;76.58;101870.13;7392604;19;20018;-66
2023/04/05 02:23:02;;;;;;;8.07;4.53;;;;;;;-2.19;76.71;101881.38;7395563;19;20032;-65
2023/04/05 02:25:30;;;;;;;6.70;4.07;;;;;;;-2.23;76.63;101877.78;7396924;19;20034;-66
2023/04/05 02:27:59;;;;;;;5.68;3.60;;;;;;;-2.23;76.78;101888.06;7395996;19;20015;-67
2023/04/05 02:30:28;;;;;;;7.50;3.50;;;;;;;-2.25;77.07;101889.69;7394015;19;20078;-67
2023/04/05 02:32:57;;;;;;;8.63;4.75;;;;;;;-2.27;77.16;101882.69;7394184;19;20011;-67
2023/04/05 02:35:25;;;;;;;5.82;3.85;;;;;;;-2.30;77.14;101883.41;7395741;19;20014;-67
2023/04/05 02:37:56;;;;;;;6.90;4.50;;;;;;;-2.31;77.23;101879.97;7395584;19;20019;-67
2023/04/05 02:40:25;;;;;;;6.07;4.18;;;;;;;-2.32;77.24;101885.03;7396112;19;20423;-67
2023/04/05 02:42:53;;;;;;;9.35;4.60;;;;;;;-2.33;77.46;101881.56;7394673;19;20100;-67
2023/04/05 02:45:22;;;;;;;5.75;3.60;;;;;;;-2.36;77.52;101875.44;7395206;19;20492;-67
2023/04/05 02:47:50;;;;;;;7.20;4.00;;;;;;;-2.37;77.46;101871.09;7395471;19;20090;-67
2023/04/05 02:50:19;;;;;;;6.75;4.07;;;;;;;-2.38;77.45;101875.31;7394982;19;20086;-66
2023/04/05 02:52:48;;;;;;;8.85;4.20;;;;;;;-2.38;77.56;101870.19;7394578;19;20037;-66
2023/04/05 02:55:19;;;;;;;5.22;3.90;;;;;;;-2.38;77.56;101871.88;7395100;19;20011;-66
2023/04/05 02:57:48;;;;;;;11.85;4.40;;;;;;;-2.40;77.74;101866.69;7395501;19;20014;-66
2023/04/05 03:00:18;;;;;;;4.88;3.67;;;;;;;-2.42;77.61;101867.41;7393146;19;20532;-67
2023/04/05 03:02:46;;;;;;;9.88;4.55;;;;;;;-2.45;77.69;101868.13;7394232;19;20086;-67
2023/04/05 03:05:17;;;;;;;5.45;3.75;;;;;;;-2.47;77.83;101869.75;7395001;19;20074;-68
2023/04/05 03:07:49;;;;;;;10.20;4.18;;;;;;;-2.51;78.02;101866.13;7394568;19;20040;-68
2023/04/05 03:10:21;;;;;;;7.50;3.75;;;;;;;-2.55;78.09;101861.66;7395052;19;20030;-67
2023/04/05 03:12:50;;;;;;;5.70;3.97;;;;;;;-2.58;78.30;101861.47;7394296;19;20019;-68
2023/04/05 03:15:18;;;;;;;6.43;3.80;;;;;;;-2.59;78.12;101858.84;7394808;19;20078;-67
2023/04/05 03:17:47;;;;;;;8.90;3.60;;;;;;;-2.62;78.42;101862.16;7394676;19;20023;-66
2023/04/05 03:20:15;;;;;;;5.32;3.90;;;;;;;-2.65;78.36;101857.72;7394533;19;20022;-67
2023/04/05 03:22:44;;;;;;;7.22;3.70;;;;;;;-2.66;78.60;101860.22;7393366;19;20014;-67
2023/04/05 03:25:13;;;;;;;6.80;3.72;;;;;;;-2.68;78.70;101864.41;7394099;19;20006;-66
2023/04/05 03:27:44;;;;;;;3.55;3.08;;;;;;;-2.70;78.49;101866.03;7394488;19;20018;-67
2023/04/05 03:30:14;;;;;;;5.72;3.35;;;;;;;-2.74;78.60;101858.94;7393947;19;20082;-66
2023/04/05 03:32:42;;;;;;;5.68;3.97;;;;;;;-2.76;78.63;101860.56;7396292;19;20419;-66
2023/04/05 03:35:12;;;;;;;8.13;3.42;;;;;;;-2.79;78.75;101858.75;7401631;19;20021;-67
2023/04/05 03:37:40;;;;;;;5.18;3.53;;;;;;;-2.81;78.73;101858.63;7401657;19;20105;-67
2023/04/05 03:40:10;;;;;;;5.20;3.55;;;;;;;-2.82;78.94;101850.84;7401139;19;20014;-67
2023/04/05 03:42:39;;;;;;;5.40;3.53;;;;;;;-2.90;78.76;101853.03;7400758;19;20023;-67
2023/04/05 03:45:11;;;;;;;7.20;3.90;;;;;;;-2.89;79.12;101854.81;7400867;19;20083;-66
2023/04/05 03:47:39;;;;;;;9.15;4.15;;;;;;;-2.92;78.96;101854.63;7397988;19;20516;-67
2023/04/05 03:50:09;;;;;;;4.75;3.45;;;;;;;-2.94;79.15;101861.41;7401134;19;20021;-66
2023/04/05 03:52:38;;;;;;;5.43;3.78;;;;;;;-2.95;79.18;101860.50;7401604;19;20021;-67
2023/04/05 03:55:08;;;;;;;6.70;3.83;;;;;;;-2.98;79.15;101860.34;7400521;19;20083;-66
2023/04/05 03:57:38;;;;;;;6.80;3.83;;;;;;;-2.99;79.08;101858.59;7400815;19;20015;-66
2023/04/05 04:00:13;;;;;;;9.27;5.95;;;;;;;-2.99;79.22;101860.28;7397944;19;20018;-66
2023/04/05 04:02:44;;;;;;;8.57;5.38;;;;;;;-3.00;79.22;101856.81;7399764;19;20036;-66
2023/04/05 04:05:14;;;;;;;6.20;3.88;;;;;;;-3.03;79.45;101848.97;7400058;19;20550;-66
2023/04/05 04:07:43;;;;;;;5.93;3.55;;;;;;;-3.04;79.66;101848.91;7400612;19;20030;-65
2023/04/05 04:10:13;;;;;;;5.85;3.45;;;;;;;-3.09;80.02;101842.66;7397904;19;20090;-65
2023/04/05 04:12:42;;;;;;;7.93;3.92;;;;;;;-3.09;80.18;101846.09;7400222;19;20026;-65
2023/04/05 04:15:14;;;;;;;8.60;3.67;;;;;;;-3.10;80.13;101849.44;7397722;19;20022;-66
2023/04/05 04:17:42;;;;;;;5.45;3.92;;;;;;;-3.11;80.19;101842.53;7399545;19;20018;-66
2023/04/05 04:20:12;;;;;;;8.30;4.20;;;;;;;-3.09;80.67;101848.66;7399544;19;20082;-65
2023/04/05 04:22:40;;;;;;;6.38;3.42;;;;;;;-3.08;81.11;101846.94;7399441;19;20006;-65
2023/04/05 04:25:11;;;;;;;8.32;3.88;;;;;;;-3.05;81.00;101850.56;7399558;19;20089;-65
2023/04/05 04:27:41;;;;;;;7.78;4.53;;;;;;;-3.00;80.53;101846.53;7399609;19;20376;-65
2023/04/05 04:30:14;;;;;;;5.70;4.15;;;;;;;-2.98;80.59;101842.38;7397001;19;20501;-65
2023/04/05 04:32:55;;;;;;;8.57;4.15;;;;;;;-2.94;80.45;101840.84;7397918;19;20011;-66
2023/04/05 04:35:26;;;;;;;9.10;4.05;;;;;;;-2.90;80.24;101847.03;7400129;19;20027;-66
2023/04/05 04:37:59;;;;;;;5.88;3.70;;;;;;;-2.88;79.97;101848.88;7397641;19;20014;-65
2023/04/05 04:40:31;;;;;;;7.07;4.40;;;;;;;-2.84;80.09;101842.22;7399461;19;20401;-65
2023/04/05 04:43:00;;;;;;;6.63;4.18;;;;;;;-2.81;80.05;101850.06;7396907;19;20074;-66
2023/04/05 04:45:36;;;;;;;10.82;4.82;;;;;;;-2.78;79.84;101845.06;7398930;19;20019;-66
2023/04/05 04:48:05;;;;;;;10.15;4.40;;;;;;;-2.73;80.18;101850.44;7399327;19;20024;-66
2023/04/05 04:50:34;;;;;;;9.50;5.18;;;;;;;-2.75;80.19;101837.53;7398755;19;20078;-66
2023/04/05 04:53:03;;;;;;;7.82;4.85;;;;;;;-2.68;79.94;101846.41;7398650;19;20022;-66
2023/04/05 04:55:32;;;;;;;10.43;5.28;;;;;;;-2.65;79.92;101844.03;7398640;19;20044;-67
2023/04/05 04:58:08;;;;;;;8.63;4.45;;;;;;;-2.61;80.00;101851.06;7398633;19;20022;-66
2023/04/05 05:00:40;;;;;;;9.55;5.03;;;;;;;-2.58;80.06;101856.34;7398345;19;20014;-66
2023/04/05 05:03:10;;;;;;;9.43;5.43;;;;;;;-2.54;79.99;101849.69;7397642;19;20414;-65
2023/04/05 05:05:43;;;;;;;9.82;4.50;;;;;;;-2.51;80.01;101850.72;7397645;19;20413;-67
2023/04/05 05:08:11;;;;;;;9.27;5.00;;;;;;;-2.48;80.00;101850.88;7398552;19;20015;-66
2023/04/05 05:10:40;;;;;;;8.23;4.90;;;;;;;-2.45;79.79;101850.16;7395723;19;20017;-66
2023/04/05 05:13:10;;;;;;;8.40;4.70;;;;;;;-2.42;79.94;101852.00;7397010;19;20381;-67
2023/04/05 05:15:41;;;;;;;7.70;5.20;;;;;;;-2.41;79.78;101849.47;7396074;19;20010;-66
2023/04/05 05:18:11;;;;;;;6.93;4.90;;;;;;;-2.41;79.97;101840.88;7398553;19;20014;-67
2023/04/05 05:20:40;;;;;;;9.13;5.10;;;;;;;-2.40;79.82;101842.66;7398036;19;20418;-66
2023/04/05 05:23:08;;;;;;;7.32;4.80;;;;;;;-2.40;79.94;101845.22;7395355;19;20018;-66
2023/04/05 05:25:37;;;;;;;7.28;4.53;;;;;;;-2.41;79.76;101841.78;7397928;19;20078;-67
2023/04/05 05:28:05;;;;;;;6.32;4.18;;;;;;;-2.40;79.92;101845.22;7397603;19;20007;-67
2023/04/05 05:30:34;;;;;;;6.05;4.38;;;;;;;-2.41;79.94;101838.31;7397894;19;20078;-66
2023/04/05 05:33:12;;;;;;;5.47;4.00;;;;;;;-2.41;79.79;101838.31;7395763;19;20082;-65
2023/04/05 05:35:40;;;;;;;6.30;4.03;;;;;;;-2.41;80.00;101846.00;7398206;19;20098;-66
2023/04/05 05:38:09;;;;;;;5.57;4.07;;;;;;;-2.41;79.83;101843.44;7397577;19;20011;-66
2023/04/05 05:40:37;;;;;;;7.72;4.05;;;;;;;-2.44;80.00;101843.31;7397411;19;20021;-67
2023/04/05 05:43:06;;;;;;;10.30;4.35;;;;;;;-2.40;79.75;101847.78;7396271;19;20077;-67
2023/04/05 05:45:35;;;;;;;7.68;3.80;;;;;;;-2.41;79.81;101848.59;7397037;19;20014;-66
2023/04/05 05:48:06;;;;;;;6.28;3.83;;;;;;;-2.41;80.00;101843.44;7397168;19;20018;-66
2023/04/05 05:50:35;;;;;;;9.73;4.85;;;;;;;-2.40;80.01;101845.22;7395799;19;20018;-66
2023/04/05 05:53:03;;;;;;;5.32;3.33;;;;;;;-2.39;79.87;101839.28;7396293;19;20074;-66
2023/04/05 05:55:32;;;;;;;8.98;4.00;;;;;;;-2.40;79.87;101835.84;7396767;19;20078;-66
2023/04/05 05:58:00;;;;;;;8.15;4.10;;;;;;;-2.36;79.95;101842.00;7396289;19;20017;-66
2023/04/05 06:00:28;;;;;;;6.65;4.30;;;;;;;-2.34;79.88;101848.09;7396864;19;20019;-66
2023/04/05 06:02:57;;;;;;;8.27;4.53;;;;;;;-2.32;80.05;101841.34;7395042;19;20029;-66
2023/04/05 06:05:28;;;;;;;6.95;4.68;;;;;;;-2.27;80.27;101841.53;7394655;19;20022;-67
2023/04/05 06:08:04;;;;;;;7.80;4.78;;;;;;;-2.22;80.03;101837.53;7394383;19;20007;-66
2023/04/05 06:10:32;;;;;;;7.15;5.25;;;;;;;-2.17;80.08;101841.22;7396121;19;20037;-67
2023/04/05 06:13:01;;;;;;;5.25;4.45;;;;;;;-2.13;79.92;101836.25;7394733;19;20014;-66
2023/04/05 06:15:30;;;;;;;8.20;5.47;;;;;;;-2.04;79.67;101837.53;7394360;19;20598;-67
2023/04/05 06:17:58;;;;;;;9.73;5.90;;;;;;;-1.97;79.88;101830.16;7396239;19;20018;-65
2023/04/05 06:20:29;;;;;;;6.78;5.60;;;;;;;-1.88;79.48;101831.41;7396256;19;20022;-65
2023/04/05 06:22:58;;;;;;;6.00;3.88;;;;;;;-1.81;79.29;101833.44;7394112;19;20414;-65
2023/04/05 06:25:26;;;;;;;5.90;3.78;;;;;;;-1.72;79.21;101836.47;7394223;19;20078;-67
2023/04/05 06:28:16;;;;;;;4.53;3.30;;;;;;;-1.62;79.14;101835.16;7395956;19;20010;-67
2023/04/05 06:30:45;;;;;;;5.10;3.45;;;;;;;-1.54;78.91;101828.69;7395990;19;20082;-67
2023/04/05 06:33:20;;;;;;;5.75;3.47;;;;;;;-1.48;78.81;101828.97;7394139;19;20082;-67
2023/04/05 06:35:51;;;;;;;4.65;2.90;;;;;;;-1.38;78.44;101824.22;7394102;19;20090;-67
2023/04/05 06:38:19;;;;;;;6.03;3.20;;;;;;;-1.30;78.53;101828.03;7395977;19;20086;-67
2023/04/05 06:40:48;;;;;;;11.35;3.35;;;;;;;-1.24;78.13;101825.72;7395173;19;20014;-66
2023/04/05 06:43:16;;;;;;;8.00;3.67;;;;;;;-1.17;78.08;101830.31;7394687;19;20035;-67
2023/04/05 06:45:45;;;;;;;6.15;3.67;;;;;;;-1.09;78.02;101829.78;7393755;19;20014;-67
2023/04/05 06:48:13;;;;;;;8.27;3.35;;;;;;;-1.03;77.79;101825.78;7394735;19;20020;-67
2023/04/05 06:50:42;;;;;;;5.03;3.40;;;;;;;-0.94;77.05;101824.41;7393495;19;20018;-67
2023/04/05 06:53:17;;;;;;;8.88;4.43;;;;;;;-0.86;77.47;101826.50;7393270;19;20018;-69
2023/04/05 06:55:50;;;;;;;6.90;4.28;;;;;;;-0.79;77.22;101819.91;7394954;19;20032;-66
2023/04/05 06:58:19;;;;;;;6.55;4.47;;;;;;;-0.70;77.27;101822.84;7394759;19;20517;-65
2023/04/05 07:00:48;;;;;;;4.30;3.00;;;;;;;-0.61;77.18;101830.09;7394248;19;20086;-66
2023/04/05 07:03:17;;;;;;;5.28;3.38;;;;;;;-0.54;76.87;101824.38;7393555;19;20015;-68
2023/04/05 07:05:52;;;;;;;8.27;3.53;;;;;;;-0.45;76.54;101820.44;7392864;19;20040;-65
2023/04/05 07:08:23;;;;;;;6.10;3.75;;;;;;;-0.36;76.79;101826.81;7403292;19;20022;-68
2023/04/05 07:10:52;;;;;;;5.72;3.85;;;;;;;-0.28;76.34;101821.97;7403242;19;20039;-67
2023/04/05 07:13:23;;;;;;;8.90;4.20;;;;;;;-0.18;76.25;101823.22;7400364;19;20014;-67
2023/04/05 07:15:51;;;;;;;5.03;3.33;;;;;;;-0.08;75.95;101815.03;7401162;19;20484;-67
2023/04/05 07:18:21;;;;;;;5.45;2.65;;;;;;;0.03;75.92;101812.00;7403165;19;20492;-67
2023/04/05 07:20:51;;;;;;;5.15;2.97;;;;;;;0.14;75.11;101819.31;7402008;19;20527;-66
2023/04/05 07:23:19;;;;;;;4.88;2.55;;;;;;;0.26;74.95;101806.00;7398988;19;20078;-66
2023/04/05 07:25:50;;;;;;;6.05;3.05;;;;;;;0.39;74.32;101804.78;7399176;19;20018;-67
2023/04/05 07:28:18;;;;;;;4.20;3.35;;;;;;;0.52;73.97;101805.19;7401468;19;20078;-65
2023/04/05 07:30:47;;;;;;;5.60;2.67;;;;;;;0.63;73.33;101803.91;7401803;19;20029;-66
2023/04/05 07:33:22;;;;;;;6.30;2.95;;;;;;;0.74;73.24;101800.00;7399014;19;20506;-66
2023/04/05 07:35:53;;;;;;;6.28;3.78;;;;;;;0.85;73.48;101792.63;7398523;19;20044;-66
2023/04/05 07:38:22;;;;;;;6.57;3.95;;;;;;;0.97;73.62;101798.22;7398374;19;20444;-66
2023/04/05 07:40:53;;;;;;;9.98;4.55;;;;;;;1.10;72.22;101798.63;7398539;19;20014;-66
2023/04/05 07:43:24;;;;;;;5.47;3.03;;;;;;;1.21;71.90;101791.25;7400655;19;20037;-67
2023/04/05 07:45:53;;;;;;;5.07;3.85;;;;;;;1.30;71.30;101794.13;7399324;19;20022;-66
2023/04/05 07:48:22;;;;;;;9.07;3.90;;;;;;;1.40;71.38;101793.63;7400782;19;20026;-66
2023/04/05 07:50:52;;;;;;;7.90;3.72;;;;;;;1.49;70.02;101790.44;7401310;19;20025;-67
2023/04/05 07:53:21;;;;;;;9.07;3.80;;;;;;;1.60;70.64;101783.03;7398184;19;20361;-67
2023/04/05 07:55:56;;;;;;;7.43;3.42;;;;;;;1.70;69.87;101777.31;7400625;19;20014;-66
2023/04/05 07:58:25;;;;;;;8.93;2.95;;;;;;;1.82;67.34;101783.72;7400206;19;20014;-68
2023/04/05 08:00:54;;;;;;;5.72;2.70;;;;;;;1.92;67.77;101789.22;7397984;19;20030;-67
2023/04/05 08:03:22;;;;;;;6.10;3.22;;;;;;;2.02;65.40;101787.81;7398023;19;20014;-67
2023/04/05 08:05:51;;;;;;;5.97;2.22;;;;;;;2.14;64.77;101794.16;7397896;19;20022;-65
2023/04/05 08:08:19;;;;;;;5.07;2.58;;;;;;;2.24;65.16;101791.03;7400715;19;20018;-65
2023/04/05 08:10:48;;;;;;;5.35;2.80;;;;;;;2.34;63.90;101789.56;7397331;19;20032;-65
2023/04/05 08:13:19;;;;;;;5.03;2.40;;;;;;;2.43;65.42;101785.53;7398901;19;20081;-67
2023/04/05 08:15:47;;;;;;;6.15;2.40;;;;;;;2.53;63.46;101791.84;7398032;19;20376;-65
2023/04/05 08:18:15;;;;;;;3.13;2.17;;;;;;;2.63;64.54;101786.94;7395599;19;20014;-65
2023/04/05 08:20:44;;;;;;;7.15;3.20;;;;;;;2.67;64.11;101778.41;7399944;19;20011;-65
2023/04/05 08:23:12;;;;;;;7.70;3.00;;;;;;;2.79;64.49;101781.31;7398584;19;20035;-66
2023/04/05 08:25:41;;;;;;;5.82;2.45;;;;;;;2.88;64.10;101789.38;7397377;19;20014;-65
2023/04/05 08:28:09;;;;;;;3.28;2.55;;;;;;;2.97;63.40;101785.25;7399654;19;20018;-66
2023/04/05 08:30:41;;;;;;;7.15;3.20;;;;;;;3.06;60.00;101788.09;7398788;19;20427;-66
2023/04/05 08:33:09;;;;;;;5.03;3.00;;;;;;;3.18;60.04;101790.13;7397203;19;20013;-66
2023/04/05 08:35:38;;;;;;;4.90;2.50;;;;;;;3.25;58.36;101779.06;7399433;19;20023;-66
2023/04/05 08:38:08;;;;;;;4.05;2.50;;;;;;;3.38;60.43;101782.84;7399026;19;20085;-66
2023/04/05 08:40:42;;;;;;;6.32;2.45;;;;;;;3.45;58.67;101778.66;7398708;19;20024;-67
2023/04/05 08:43:15;;;;;;;4.82;2.80;;;;;;;3.53;59.56;101772.81;7398164;19;20481;-68
2023/04/05 08:45:50;;;;;;;7.05;3.30;;;;;;;3.63;59.05;101775.63;7397622;19;20015;-67
2023/04/05 08:48:19;;;;;;;13.00;5.63;;;;;;;3.72;60.27;101776.72;7398918;19;20075;-67
2023/04/05 08:50:52;;;;;;;7.97;3.13;;;;;;;3.76;54.28;101777.69;7398947;19;20023;-66
2023/04/05 08:53:21;;;;;;;5.43;2.88;;;;;;;3.85;57.86;101769.22;7397167;19;20019;-66
2023/04/05 08:55:52;;;;;;;9.52;4.30;;;;;;;3.93;58.25;101772.88;7398961;19;20082;-65
2023/04/05 08:58:22;;;;;;;9.15;4.57;;;;;;;4.00;55.70;101774.75;7396243;19;20022;-65
2023/04/05 09:00:54;;;;;;;10.20;5.25;;;;;;;4.08;57.41;101774.91;7398621;19;20015;-66
2023/04/05 09:03:24;;;;;;;8.35;4.03;;;;;;;4.15;56.96;101770.75;7396941;19;20025;-66
2023/04/05 09:05:54;;;;;;;8.52;3.63;;;;;;;4.22;56.21;101770.00;7397103;19;20019;-67
2023/04/05 09:08:23;;;;;;;4.22;2.63;;;;;;;4.28;55.01;101767.53;7396290;19;20095;-67
2023/04/05 09:10:52;;;;;;;9.25;5.18;;;;;;;4.35;55.17;101764.22;7398277;19;20089;-66
2023/04/05 09:13:21;;;;;;;7.65;3.90;;;;;;;4.41;55.18;101766.09;7395188;19;20500;-67
2023/04/05 09:15:50;;;;;;;5.18;2.30;;;;;;;4.47;54.27;101762.72;7397714;19;20014;-68
2023/04/05 09:18:21;;;;;;;5.50;3.00;;;;;;;4.50;50.07;101761.06;7398518;19;20018;-67
2023/04/05 09:20:50;;;;;;;5.85;2.65;;;;;;;4.56;51.72;101770.69;7396094;19;20100;-66
2023/04/05 09:23:18;;;;;;;5.20;2.47;;;;;;;4.62;52.60;101763.03;7396947;19;20021;-67
2023/04/05 09:25:51;;;;;;;10.35;3.33;;;;;;;4.66;53.57;101762.25;7396428;19;20018;-65
2023/04/05 09:28:20;;;;;;;5.47;2.45;;;;;;;4.69;49.53;101769.22;7396032;19;20019;-66
2023/04/05 09:30:49;;;;;;;4.95;2.58;;;;;;;4.73;52.34;101765.84;7397491;19;20018;-66
2023/04/05 09:33:21;;;;;;;7.93;2.72;;;;;;;4.76;52.78;101765.00;7395671;19;20011;-67
2023/04/05 09:35:56;;;;;;;5.65;3.38;;;;;;;4.78;50.63;101764.19;7396896;19;20014;-68
2023/04/05 09:38:44;;;;;;;6.43;3.15;;;;;;;4.81;49.33;101764.25;7397225;19;20021;-66
2023/04/05 09:41:12;;;;;;;5.45;2.38;;;;;;;4.91;52.79;101757.50;7395355;19;20015;-65
2023/04/05 09:43:42;;;;;;;7.07;2.83;;;;;;;4.97;51.12;101768.00;7395006;19;20025;-67
2023/04/05 09:46:32;;;;;;;3.97;2.53;;;;;;;5.00;48.04;101762.84;7395093;19;20082;-66
2023/04/05 09:49:02;;;;;;;5.57;2.55;;;;;;;5.08;51.13;101767.31;7396378;19;20018;-67
2023/04/05 09:51:38;;;;;;;3.95;2.13;;;;;;;5.10;46.07;101761.28;7395565;19;20085;-66
2023/04/05 09:54:08;;;;;;;5.43;2.97;;;;;;;5.15;49.66;101763.97;7395612;19;20029;-66
2023/04/05 09:56:39;;;;;;;4.57;2.20;;;;;;;5.20;50.75;101744.13;7396684;19;20082;-67
2023/04/05 09:59:09;;;;;;;5.18;2.28;;;;;;;5.26;51.14;101746.81;7396546;19;20015;-67
2023/04/05 10:01:38;;;;;;;4.20;2.00;;;;;;;5.30;47.92;101752.94;7397282;19;20097;-69
2023/04/05 10:04:07;;;;;;;4.07;2.25;;;;;;;5.41;49.07;101742.69;7394978;19;20014;-67
2023/04/05 10:06:42;;;;;;;4.82;2.88;;;;;;;5.52;45.29;101754.16;7394254;19;20015;-68
2023/04/05 10:09:13;;;;;;;3.42;2.15;;;;;;;5.61;48.69;101743.00;7396599;19;20014;-67
2023/04/05 10:11:45;;;;;;;5.43;2.92;;;;;;;5.64;48.39;101736.13;7396220;19;20026;-71
2023/04/05 10:14:14;;;;;;;4.75;2.55;;;;;;;5.68;49.61;101740.50;7394838;19;20078;-67
2023/04/05 10:16:56;;;;;;;6.10;2.22;;;;;;;5.78;46.00;101735.44;7395590;19;20087;-66
2023/04/05 10:19:30;;;;;;;4.82;2.45;;;;;;;5.84;44.81;101739.00;7395258;19;20017;-67
2023/04/05 10:22:04;;;;;;;3.77;2.33;;;;;;;5.86;44.47;101747.72;7395289;19;20503;-67
2023/04/05 10:24:38;;;;;;;6.05;2.20;;;;;;;5.90;47.16;101742.53;7393100;19;20048;-68
2023/04/05 10:27:09;;;;;;;5.75;2.80;;;;;;;5.92;47.83;101741.72;7395863;19;20032;-67
2023/04/05 10:29:47;;;;;;;3.35;2.05;;;;;;;5.94;46.59;101736.50;7393974;19;20422;-67
2023/04/05 10:32:21;;;;;;;3.38;2.05;;;;;;;6.00;48.18;101729.72;7394556;19;20011;-67
2023/04/05 10:34:53;;;;;;;;;;;;;;;6.09;44.99;101733.28;7394268;19;20351;-65
2023/04/05 10:37:36;;;;;;;7.45;3.50;;;;;;;6.17;48.20;101729.91;7394656;19;19922;-66
2023/04/05 10:40:10;;;;;;;4.10;1.98;;;;;;;6.26;46.05;101729.16;7394993;19;20016;-67
2023/04/05 10:42:43;;;;;;;4.40;2.08;;;;;;;6.30;44.87;101723.09;7391325;19;20015;-66
2023/04/05 10:45:16;;;;;;;4.57;1.85;;;;;;;6.26;43.51;101736.97;7393020;19;20041;-67
2023/04/05 10:47:51;;;;;;;5.88;2.47;;;;;;;6.22;45.14;101727.38;7395288;19;20029;-67
2023/04/05 10:50:24;;;;;;;5.22;1.98;;;;;;;6.22;45.79;101721.25;7395039;19;20022;-67
2023/04/05 10:52:58;;;;;;;5.85;2.63;;;;;;;6.26;46.89;101720.47;7393167;19;20023;-66
2023/04/05 10:55:26;;;;;;;4.18;2.30;;;;;;;6.36;47.57;101715.34;7395229;19;20022;-67
2023/04/05 10:57:56;;;;;;;3.55;2.65;;;;;;;6.46;46.58;101715.47;7394730;19;20369;-65
2023/04/05 11:00:25;;;;;;;3.13;1.83;;;;;;;6.56;46.43;101711.22;7394541;19;20018;-68
2023/04/05 11:02:56;;;;;;;3.45;1.80;;;;;;;6.59;40.52;101725.16;7394603;19;20078;-67
2023/04/05 11:05:33;;;;;;;3.13;1.60;;;;;;;6.57;41.82;101716.47;7394511;19;20029;-68
2023/04/05 11:08:06;;;;;;;2.55;1.70;;;;;;;6.60;44.57;101710.41;7394934;19;20052;-68
2023/04/05 11:10:37;;;;;;;2.93;1.50;;;;;;;6.63;44.05;101715.66;7394707;19;20037;-67
2023/04/05 11:13:07;;;;;;;3.08;1.60;;;;;;;6.64;41.51;101718.25;7393443;19;20025;-67
2023/04/05 11:15:37;;;;;;;2.22;1.35;;;;;;;6.60;38.79;101711.28;7394678;19;20029;-67
2023/04/05 11:18:07;;;;;;;5.65;1.40;;;;;;;6.58;37.55;101712.97;7392554;19;20082;-67
2023/04/05 11:20:47;;;;;;;2.35;1.15;;;;;;;6.59;39.86;101711.28;7394690;19;20019;-67
2023/04/05 11:23:20;;;;;;;5.60;2.28;;;;;;;6.57;40.14;101716.47;7393166;19;20078;-67
2023/04/05 11:25:52;;;;;;;2.50;1.65;;;;;;;6.63;41.02;101713.91;7392649;19;20348;-67
2023/04/05 11:28:30;;;;;;;2.28;1.30;;;;;;;6.72;39.79;101704.44;7394441;19;20022;-67
2023/04/05 11:31:00;;;;;;;2.17;1.45;;;;;;;6.84;42.76;101692.38;7393977;19;20030;-67
2023/04/05 11:33:45;;;;;;;2.63;1.30;;;;;;;7.00;40.69;101690.78;7391384;19;20010;-64
2023/04/05 11:36:15;;;;;;;3.42;1.33;;;;;;;7.19;41.99;101688.31;7390984;19;20157;-64
2023/04/05 11:38:47;;;;;;;3.97;1.45;;;;;;;7.33;41.02;101693.66;7394000;19;20021;-65
2023/04/05 11:41:17;;;;;;;3.75;1.52;;;;;;;7.45;40.79;101695.44;7394558;19;20093;-67
2023/04/05 11:43:46;;;;;;;4.13;2.00;;;;;;;7.54;41.32;101692.88;7394248;19;20045;-67
2023/04/05 11:46:15;;;;;;;5.25;2.00;;;;;;;7.61;38.94;101693.81;7391267;19;20014;-67